Time;durP1;ratioP1;P1;durP2;ratioP2;P2;SDS_P1;SDS_P2;PMS_P1;PMS_P2;Temp;Humidity;BMP_temperature;BMP_pressure;BME280_temperature;BME280_humidity;BME280_pressure;Samples;Min_cycle;Max_cycle;Signal;HPM_P1;HPM_P2
2024/03/08 00:00:12;;;;;;;73.80;33.20;;;;;;;-0.33;86.20;101586.73;106034;1261;98506;-80
2024/03/08 00:03:18;;;;;;;65.50;32.50;;;;;;;-0.39;86.37;101586.39;106053;1259;104644;-82
2024/03/08 00:06:05;;;;;;;67.80;34.10;;;;;;;-0.41;86.41;101585.84;106148;1259;99095;-81
2024/03/08 00:08:51;;;;;;;70.50;33.30;;;;;;;-0.44;86.34;101581.62;106051;1259;97911;-81
2024/03/08 00:11:37;;;;;;;67.10;32.80;;;;;;;-0.48;86.23;101581.17;105940;1260;98038;-82
2024/03/08 00:14:22;;;;;;;67.30;30.40;;;;;;;-0.53;86.33;101585.86;105893;1260;99558;-82
2024/03/08 00:17:09;;;;;;;69.90;33.60;;;;;;;-0.58;86.46;101581.81;106003;1260;101318;-81
2024/03/08 00:19:54;;;;;;;66.60;33.70;;;;;;;-0.64;86.64;101584.41;106093;1260;99257;-82
2024/03/08 00:22:40;;;;;;;68.50;32.20;;;;;;;-0.70;86.66;101585.14;106131;1259;97996;-82
2024/03/08 00:25:26;;;;;;;66.10;31.40;;;;;;;-0.75;86.74;101587.70;105977;1259;97865;-81
2024/03/08 00:28:14;;;;;;;69.90;33.00;;;;;;;-0.76;86.92;101585.15;106209;1260;97790;-81
2024/03/08 00:31:00;;;;;;;66.20;30.40;;;;;;;-0.78;86.74;101585.10;106004;1264;101435;-82
2024/03/08 00:33:46;;;;;;;69.90;32.80;;;;;;;-0.81;86.80;101587.89;106100;1264;101479;-82
2024/03/08 00:36:32;;;;;;;65.00;32.50;;;;;;;-0.83;86.93;101590.11;106138;1259;98070;-82
2024/03/08 00:39:21;;;;;;;70.00;33.10;;;;;;;-0.84;87.19;101587.36;105977;1265;98053;-81
2024/03/08 00:42:06;;;;;;;64.00;31.60;;;;;;;-0.86;87.36;101586.59;106097;1259;97674;-82
2024/03/08 00:44:52;;;;;;;60.10;29.20;;;;;;;-0.88;87.25;101585.86;106247;1261;101436;-82
2024/03/08 00:47:37;;;;;;;63.60;29.40;;;;;;;-0.91;87.41;101584.11;105988;1259;100077;-80
2024/03/08 00:50:23;;;;;;;63.70;28.10;;;;;;;-0.92;87.62;101587.48;106154;1260;97958;-81
2024/03/08 00:53:11;;;;;;;65.40;29.90;;;;;;;-0.93;87.63;101584.60;106084;1259;97904;-81
2024/03/08 00:55:56;;;;;;;62.70;29.20;;;;;;;-0.96;87.45;101585.83;106034;1260;98477;-82
2024/03/08 00:58:41;;;;;;;60.20;29.90;;;;;;;-1.01;87.59;101582.79;105993;1261;101929;-83
2024/03/08 01:01:27;;;;;;;62.80;31.10;;;;;;;-1.04;87.74;101582.58;106016;1260;100175;-81
2024/03/08 01:04:12;;;;;;;59.00;28.60;;;;;;;-1.07;87.81;101581.19;106033;1259;99038;-83
2024/03/08 01:07:00;;;;;;;57.90;29.60;;;;;;;-1.10;88.03;101574.70;106181;1265;97960;-82
2024/03/08 01:09:45;;;;;;;51.60;26.90;;;;;;;-1.12;88.10;101575.86;106056;1259;97817;-83
2024/03/08 01:12:31;;;;;;;58.50;27.70;;;;;;;-1.14;88.19;101576.48;106026;1264;101440;-83
2024/03/08 01:15:17;;;;;;;59.80;27.60;;;;;;;-1.16;88.23;101574.88;106118;1261;100491;-81
2024/03/08 01:18:02;;;;;;;56.60;26.90;;;;;;;-1.18;88.03;101570.27;106070;1260;97880;-82
2024/03/08 01:20:48;;;;;;;54.10;27.20;;;;;;;-1.20;88.01;101569.48;105998;1259;98555;-82
2024/03/08 01:23:34;;;;;;;59.40;28.50;;;;;;;-1.23;87.88;101567.38;106068;1265;97935;-83
2024/03/08 01:26:20;;;;;;;53.60;26.70;;;;;;;-1.26;87.69;101565.67;106155;1265;102714;-82
2024/03/08 01:29:06;;;;;;;58.00;28.50;;;;;;;-1.30;87.67;101565.73;106089;1259;100753;-82
2024/03/08 01:31:52;;;;;;;55.40;27.00;;;;;;;-1.33;87.70;101566.26;106190;1262;99015;-82
2024/03/08 01:34:38;;;;;;;57.30;28.50;;;;;;;-1.35;87.79;101568.30;106179;1265;98041;-84
2024/03/08 01:37:24;;;;;;;55.60;26.20;;;;;;;-1.37;87.81;101568.25;106170;1260;97913;-82
2024/03/08 01:40:10;;;;;;;51.80;25.20;;;;;;;-1.39;87.77;101564.36;106283;1259;102326;-82
2024/03/08 01:42:55;;;;;;;52.70;24.80;;;;;;;-1.41;87.62;101560.09;106249;1264;99164;-82
2024/03/08 01:45:41;;;;;;;53.00;26.70;;;;;;;-1.42;87.56;101562.23;106108;1260;98040;-83
2024/03/08 01:48:29;;;;;;;53.10;26.90;;;;;;;-1.43;87.69;101561.91;106104;1260;98057;-83
2024/03/08 01:51:15;;;;;;;59.90;29.00;;;;;;;-1.44;87.79;101559.02;106257;1259;98423;-82
2024/03/08 01:54:03;;;;;;;58.50;27.70;;;;;;;-1.45;87.69;101557.34;105993;1261;261872;-82
2024/03/08 01:56:49;;;;;;;58.30;27.20;;;;;;;-1.45;87.63;101551.71;106013;1264;100405;-82
2024/03/08 01:59:35;;;;;;;61.80;27.60;;;;;;;-1.45;87.59;101547.83;106029;1260;98336;-82
2024/03/08 02:02:22;;;;;;;56.40;26.90;;;;;;;-1.45;87.73;101546.42;106116;1265;98054;-82
2024/03/08 02:05:08;;;;;;;53.60;27.50;;;;;;;-1.47;87.63;101545.84;105968;1259;98544;-82
2024/03/08 02:07:54;;;;;;;52.70;27.20;;;;;;;-1.49;87.58;101546.14;106037;1260;101425;-82
2024/03/08 02:10:43;;;;;;;56.70;26.70;;;;;;;-1.50;87.59;101543.44;106004;1260;99643;-82
2024/03/08 02:13:29;;;;;;;62.70;27.90;;;;;;;-1.53;87.59;101540.92;106112;1259;97843;-82
2024/03/08 02:16:22;;;;;;;56.00;27.00;;;;;;;-1.54;87.63;101536.62;106015;1263;98007;-82
2024/03/08 02:19:09;;;;;;;52.80;26.90;;;;;;;-1.56;87.61;101535.16;106129;1260;97977;-82
2024/03/08 02:21:57;;;;;;;55.40;28.60;;;;;;;-1.59;87.69;101535.84;106019;1260;102325;-82
2024/03/08 02:24:43;;;;;;;56.70;28.00;;;;;;;-1.61;87.83;101533.86;106054;1261;99262;-84
2024/03/08 02:27:32;;;;;;;49.90;25.00;;;;;;;-1.64;87.94;101535.08;105937;1262;98046;-83
2024/03/08 02:30:18;;;;;;;54.70;26.60;;;;;;;-1.66;88.12;101532.41;105986;1259;97982;-82
2024/03/08 02:33:05;;;;;;;52.40;26.20;;;;;;;-1.69;88.39;101532.91;106161;1259;98059;-82
2024/03/08 02:35:51;;;;;;;54.10;25.40;;;;;;;-1.69;88.54;101534.36;106104;1262;101566;-81
2024/03/08 02:38:36;;;;;;;55.40;24.90;;;;;;;-1.71;88.39;101534.83;106144;1259;99235;-82
2024/03/08 02:41:22;;;;;;;53.00;25.00;;;;;;;-1.76;88.20;101535.39;106333;1260;98022;-82
2024/03/08 02:44:08;;;;;;;52.70;26.20;;;;;;;-1.80;88.18;101534.25;106055;1259;98024;-83
2024/03/08 02:46:55;;;;;;;57.30;26.90;;;;;;;-1.83;88.65;101532.48;106075;1259;97984;-80
2024/03/08 02:49:40;;;;;;;50.50;23.80;;;;;;;-1.85;88.70;101529.80;106005;1260;101439;-81
2024/03/08 02:52:25;;;;;;;55.80;25.90;;;;;;;-1.87;88.66;101528.50;106002;1259;99759;-80
2024/03/08 02:55:11;;;;;;;54.80;25.60;;;;;;;-1.88;88.81;101525.42;105932;1262;98019;-81
2024/03/08 02:57:57;;;;;;;54.30;26.70;;;;;;;-1.88;89.00;101523.34;106207;1264;97981;-83
2024/03/08 03:00:44;;;;;;;47.10;24.10;;;;;;;-1.88;88.86;101523.52;105771;1259;98488;-81
2024/03/08 03:03:30;;;;;;;52.50;24.60;;;;;;;-1.91;88.61;101523.52;105925;1261;101474;-82
2024/03/08 03:06:15;;;;;;;56.70;26.10;;;;;;;-1.96;88.60;101523.42;105839;1259;99182;-81
2024/03/08 03:09:02;;;;;;;49.40;25.10;;;;;;;-1.98;88.58;101524.07;105862;1259;97980;-82
2024/03/08 03:11:47;;;;;;;48.10;25.30;;;;;;;-2.00;88.64;101520.86;106008;1259;97970;-84
2024/03/08 03:14:38;;;;;;;47.30;22.00;;;;;;;-2.02;88.68;101521.29;106023;1263;97883;-82
2024/03/08 03:17:24;;;;;;;42.60;22.20;;;;;;;-2.05;88.52;101523.59;105993;1264;101417;-81
2024/03/08 03:20:12;;;;;;;41.10;21.80;;;;;;;-2.08;88.42;101521.48;106035;1259;99080;-81
2024/03/08 03:23:01;;;;;;;46.10;22.80;;;;;;;-2.12;88.27;101522.39;106107;1260;99003;-82
2024/03/08 03:25:46;;;;;;;41.70;20.50;;;;;;;-2.13;88.34;101525.95;106026;1264;97151;-81
2024/03/08 03:28:33;;;;;;;42.40;21.10;;;;;;;-2.14;88.36;101528.45;106197;1259;98452;-81
2024/03/08 03:31:18;;;;;;;44.50;20.90;;;;;;;-2.13;88.45;101525.09;106124;1262;103261;-82
2024/03/08 03:34:04;;;;;;;49.10;21.20;;;;;;;-2.14;88.50;101523.04;106140;1259;100397;-83
2024/03/08 03:36:50;;;;;;;42.00;20.20;;;;;;;-2.13;88.52;101521.79;106163;1260;97986;-83
2024/03/08 03:39:44;;;;;;;42.20;21.40;;;;;;;-2.12;88.72;101520.67;106115;1261;97963;-82
2024/03/08 03:42:30;;;;;;;43.00;22.70;;;;;;;-2.11;88.92;101518.33;106182;1265;98610;-82
2024/03/08 03:45:19;;;;;;;45.60;23.80;;;;;;;-2.10;89.02;101513.91;106082;1263;102088;-83
2024/03/08 03:48:06;;;;;;;43.40;22.10;;;;;;;-2.09;89.06;101511.94;106057;1259;100153;-82
2024/03/08 03:50:52;;;;;;;45.60;23.00;;;;;;;-2.09;89.16;101508.23;106056;1264;99781;-83
2024/03/08 03:53:38;;;;;;;46.40;23.20;;;;;;;-2.09;89.26;101507.53;106167;1259;97973;-82
2024/03/08 03:56:27;;;;;;;49.20;23.70;;;;;;;-2.11;89.13;101508.19;106172;1260;98033;-82
2024/03/08 03:59:13;;;;;;;43.30;23.00;;;;;;;-2.13;89.01;101507.43;106167;1259;102778;-82
2024/03/08 04:01:59;;;;;;;50.50;24.80;;;;;;;-2.16;88.83;101506.52;106039;1262;100469;-83
2024/03/08 04:04:45;;;;;;;46.30;22.30;;;;;;;-2.19;88.70;101507.73;106243;1259;98929;-82
2024/03/08 04:07:31;;;;;;;45.70;22.70;;;;;;;-2.21;88.65;101502.27;105997;1259;98016;-81
2024/03/08 04:10:16;;;;;;;46.00;23.00;;;;;;;-2.22;88.92;101503.20;106139;1265;97989;-81
2024/03/08 04:13:03;;;;;;;49.00;25.00;;;;;;;-2.22;89.07;101500.05;106127;1264;101314;-81
2024/03/08 04:15:49;;;;;;;52.20;26.70;;;;;;;-2.24;88.94;101501.02;106233;1259;100703;-80
2024/03/08 04:18:38;;;;;;;46.40;23.40;;;;;;;-2.25;88.81;101502.29;106034;1261;98832;-81
2024/03/08 04:21:23;;;;;;;49.10;24.30;;;;;;;-2.27;88.83;101500.83;106231;1260;97958;-83
2024/03/08 04:24:09;;;;;;;44.40;24.30;;;;;;;-2.29;88.93;101498.16;106091;1259;98582;-82
2024/03/08 04:26:55;;;;;;;48.30;23.80;;;;;;;-2.30;89.12;101500.34;106042;1260;101449;-82
2024/03/08 04:29:41;;;;;;;48.30;24.70;;;;;;;-2.32;89.01;101500.08;105954;1259;100477;-82
2024/03/08 04:32:29;;;;;;;48.20;25.80;;;;;;;-2.34;88.98;101499.45;105994;1260;97932;-82
2024/03/08 04:35:15;;;;;;;50.80;24.70;;;;;;;-2.36;88.97;101500.11;105999;1259;98540;-83
2024/03/08 04:38:01;;;;;;;56.10;25.70;;;;;;;-2.38;89.02;101502.31;106365;1262;99185;-81
2024/03/08 04:40:46;;;;;;;50.70;26.10;;;;;;;-2.41;89.01;101499.86;105957;1259;101452;-81
2024/03/08 04:43:34;;;;;;;47.70;22.80;;;;;;;-2.45;88.93;101496.75;106168;1265;100081;-83
2024/03/08 04:46:20;;;;;;;48.40;24.50;;;;;;;-2.50;88.99;101493.36;106080;1265;97968;-81
2024/03/08 04:49:07;;;;;;;52.20;24.40;;;;;;;-2.55;89.15;101492.70;106010;1259;97950;-81
2024/03/08 04:51:52;;;;;;;50.80;24.70;;;;;;;-2.58;89.23;101489.93;106181;1259;98428;-82
2024/03/08 04:54:38;;;;;;;45.00;23.30;;;;;;;-2.61;89.22;101487.48;105873;1259;102713;-80
2024/03/08 04:57:23;;;;;;;52.60;24.00;;;;;;;-2.62;89.32;101490.34;106040;1260;99545;-81
2024/03/08 05:00:11;;;;;;;50.60;24.80;;;;;;;-2.62;89.53;101491.89;105916;1259;99596;-81
2024/03/08 05:02:56;;;;;;;45.40;23.70;;;;;;;-2.62;89.41;101490.30;106412;1259;96428;-82
2024/03/08 05:05:42;;;;;;;48.80;23.90;;;;;;;-2.63;89.50;101495.27;105948;1259;96486;-82
2024/03/08 05:08:27;;;;;;;47.70;22.50;;;;;;;-2.65;89.33;101496.96;106274;1264;103235;-80
2024/03/08 05:11:14;;;;;;;50.90;23.00;;;;;;;-2.67;89.34;101496.88;106113;1264;99594;-80
2024/03/08 05:13:59;;;;;;;46.20;24.60;;;;;;;-2.69;89.23;101495.77;106048;1265;98540;-81
2024/03/08 05:16:50;;;;;;;48.80;23.00;;;;;;;-2.70;89.16;101494.95;106133;1264;97944;-82
2024/03/08 05:19:36;;;;;;;44.60;21.20;;;;;;;-2.70;89.09;101494.08;106001;1265;98125;-81
2024/03/08 05:22:21;;;;;;;48.40;23.50;;;;;;;-2.70;89.11;101497.92;106073;1264;101414;-82
2024/03/08 05:25:08;;;;;;;45.80;22.00;;;;;;;-2.71;89.05;101499.00;106104;1265;100146;-80
2024/03/08 05:27:53;;;;;;;42.20;22.40;;;;;;;-2.70;89.13;101500.04;106064;1264;98415;-82
2024/03/08 05:30:39;;;;;;;40.50;21.20;;;;;;;-2.70;89.21;101499.88;106110;1260;98553;-82
2024/03/08 05:33:24;;;;;;;47.20;21.80;;;;;;;-2.71;89.32;101496.06;106156;1259;98045;-82
2024/03/08 05:36:11;;;;;;;47.90;23.90;;;;;;;-2.73;89.48;101495.78;105972;1259;101419;-81
2024/03/08 05:38:57;;;;;;;42.20;20.80;;;;;;;-2.73;89.49;101496.17;106039;1265;99265;-82
2024/03/08 05:41:43;;;;;;;45.80;23.00;;;;;;;-2.75;89.65;101495.91;106129;1259;99346;-82
2024/03/08 05:44:30;;;;;;;50.80;24.20;;;;;;;-2.75;89.74;101496.96;106139;1264;98029;-82
2024/03/08 05:47:16;;;;;;;43.90;22.10;;;;;;;-2.75;89.79;101498.54;106152;1259;96516;-82
2024/03/08 05:50:02;;;;;;;47.00;23.50;;;;;;;-2.75;89.79;101497.82;106141;1259;102817;-83
2024/03/08 05:52:47;;;;;;;47.20;24.60;;;;;;;-2.74;89.99;101499.20;106037;1265;100427;-82
2024/03/08 05:55:34;;;;;;;49.30;24.90;;;;;;;-2.73;90.37;101496.33;106210;1264;99003;-81
2024/03/08 05:58:20;;;;;;;47.60;24.20;;;;;;;-2.71;90.52;101497.11;106418;1265;98583;-82
2024/03/08 06:01:07;;;;;;;40.80;21.50;;;;;;;-2.68;90.80;101500.25;106122;1260;98485;-82
2024/03/08 06:03:55;;;;;;;42.50;22.50;;;;;;;-2.65;90.88;101501.85;106226;1260;102882;-82
2024/03/08 06:06:41;;;;;;;64.20;26.90;;;;;;;-2.62;91.05;101500.48;106138;1266;99158;-81
2024/03/08 06:09:27;;;;;;;78.40;32.90;;;;;;;-2.58;91.19;101503.59;106023;1259;97980;-81
2024/03/08 06:12:18;;;;;;;92.50;38.50;;;;;;;-2.54;91.46;101498.44;106068;1265;98061;-83
2024/03/08 06:15:04;;;;;;;;;;;;;;;-2.49;91.50;101500.27;106158;1259;97871;-81
2024/03/08 06:17:49;;;;;;;126.90;46.70;;;;;;;-2.47;91.73;101497.38;106106;1259;102800;-82
2024/03/08 06:20:35;;;;;;;143.30;53.00;;;;;;;-2.43;91.96;101495.06;106138;1266;99190;-82
2024/03/08 06:23:21;;;;;;;118.20;49.50;;;;;;;-2.38;92.12;101495.64;106274;1265;97984;-81
2024/03/08 06:26:08;;;;;;;93.40;43.30;;;;;;;-2.32;92.45;101496.73;106094;1259;97984;-82
2024/03/08 06:28:55;;;;;;;87.60;42.40;;;;;;;-2.25;92.93;101499.33;106196;1264;98447;-81
2024/03/08 06:31:41;;;;;;;90.10;41.40;;;;;;;-2.19;93.32;101500.20;108069;1259;102754;-82
2024/03/08 06:34:26;;;;;;;85.60;41.40;;;;;;;-2.11;93.77;101498.55;108181;1259;100095;-82
2024/03/08 06:37:11;;;;;;;82.60;39.80;;;;;;;-2.03;94.14;101497.39;106499;1259;97878;-82
2024/03/08 06:39:57;;;;;;;85.80;40.00;;;;;;;-1.95;94.16;101497.30;106101;1259;97852;-81
2024/03/08 06:42:46;;;;;;;82.70;40.80;;;;;;;-1.87;94.32;101495.28;106224;1260;97930;-81
2024/03/08 06:45:32;;;;;;;78.70;41.30;;;;;;;-1.80;94.83;101495.57;106212;1260;101411;-84
2024/03/08 06:48:18;;;;;;;69.40;36.30;;;;;;;-1.72;95.52;101497.89;106133;1259;99165;-82
2024/03/08 06:51:05;;;;;;;71.50;36.80;;;;;;;-1.64;95.93;101498.30;105976;1262;98775;-84
2024/03/08 06:53:52;;;;;;;90.00;42.60;;;;;;;-1.56;96.25;101498.56;106038;1259;96465;-83
2024/03/08 06:56:38;;;;;;;90.80;46.70;;;;;;;-1.47;96.17;101498.61;106058;1260;98094;-83
2024/03/08 06:59:23;;;;;;;99.70;51.10;;;;;;;-1.39;96.19;101500.54;106341;1260;101461;-81
2024/03/08 07:02:10;;;;;;;94.60;44.10;;;;;;;-1.30;96.83;101501.40;106296;1260;99779;-82
2024/03/08 07:04:56;;;;;;;105.70;47.50;;;;;;;-1.21;97.11;101498.61;106239;1267;97866;-82
2024/03/08 07:07:42;;;;;;;96.90;49.10;;;;;;;-1.13;97.37;101494.42;106208;1263;97961;-81
2024/03/08 07:10:28;;;;;;;100.10;46.00;;;;;;;-1.03;97.60;101495.27;106427;1259;98536;-82
2024/03/08 07:13:14;;;;;;;98.40;48.70;;;;;;;-0.94;97.74;101495.23;106378;1262;102715;-83
2024/03/08 07:16:00;;;;;;;104.00;47.70;;;;;;;-0.85;98.07;101492.23;106192;1259;99983;-82
2024/03/08 07:18:52;;;;;;;96.60;47.50;;;;;;;-0.77;98.04;101493.70;106307;1264;97886;-88
2024/03/08 07:21:37;;;;;;;102.70;50.60;;;;;;;-0.70;98.38;101491.45;105824;1265;98058;-82
2024/03/08 07:27:44;;;;;;;106.40;50.40;;;;;;;-0.52;98.82;101490.21;105585;1266;101688;-82
2024/03/08 07:33:30;;;;;;;;;;;;;;;-0.36;99.24;101488.46;106143;1265;98062;-86
2024/03/08 07:36:16;;;;;;;93.90;44.90;;;;;;;-0.29;99.62;101491.89;106310;1265;97888;-80
2024/03/08 07:39:02;;;;;;;99.70;48.00;;;;;;;-0.21;99.85;101485.77;106243;1259;98500;-82
2024/03/08 07:41:48;;;;;;;108.50;51.00;;;;;;;-0.13;99.93;101485.42;106014;1261;102733;-80
2024/03/08 07:44:34;;;;;;;101.80;51.50;;;;;;;-0.04;99.94;101487.63;106293;1260;99829;-81
2024/03/08 07:47:20;;;;;;;106.10;52.20;;;;;;;0.05;99.91;101484.64;106169;1260;97966;-82
2024/03/08 07:50:08;;;;;;;102.80;52.20;;;;;;;0.14;99.99;101481.42;106102;1264;99221;-80
2024/03/08 07:52:54;;;;;;;110.50;52.20;;;;;;;0.21;100.00;101482.85;106309;1265;97896;-80
2024/03/08 07:55:42;;;;;;;117.50;53.70;;;;;;;0.31;100.00;101481.34;106085;1265;102716;-80
2024/03/08 07:58:28;;;;;;;111.50;57.00;;;;;;;0.41;100.00;101480.49;106214;1260;99229;-81
2024/03/08 08:01:18;;;;;;;108.50;53.70;;;;;;;0.51;100.00;101478.08;106380;1264;97897;-82
2024/03/08 08:04:04;;;;;;;117.80;61.10;;;;;;;0.61;100.00;101479.84;106412;1260;97842;-82
2024/03/08 08:06:51;;;;;;;116.80;59.60;;;;;;;0.71;100.00;101477.95;106378;1260;98500;-81
2024/03/08 08:09:37;;;;;;;106.40;54.30;;;;;;;0.83;100.00;101475.92;106452;1259;102584;-81
2024/03/08 08:12:23;;;;;;;110.10;54.60;;;;;;;0.93;100.00;101477.36;106104;1268;99947;-84
2024/03/08 08:15:09;;;;;;;109.40;53.90;;;;;;;1.01;100.00;101478.36;105987;1265;98041;-82
2024/03/08 08:17:55;;;;;;;108.20;52.60;;;;;;;1.09;100.00;101476.36;106062;1268;98015;-86
2024/03/08 08:20:41;;;;;;;104.30;56.00;;;;;;;1.18;100.00;101474.70;106062;1261;97978;-84
2024/03/08 08:23:27;;;;;;;110.80;55.50;;;;;;;1.27;100.00;101472.47;106101;1264;102672;-87
2024/03/08 08:26:14;;;;;;;110.30;55.40;;;;;;;1.36;100.00;101468.16;106350;1259;99331;-82
2024/03/08 08:29:00;;;;;;;98.40;51.60;;;;;;;1.44;100.00;101466.68;106027;1267;97976;-77
2024/03/08 08:31:46;;;;;;;93.60;49.60;;;;;;;1.53;100.00;101468.36;105164;1260;97961;-77
2024/03/08 08:34:32;;;;;;;92.30;49.80;;;;;;;1.62;100.00;101463.17;106123;1259;97957;-88
2024/03/08 08:37:18;;;;;;;99.20;50.00;;;;;;;1.70;100.00;101457.83;106057;1259;101530;-79
2024/03/08 08:40:09;;;;;;;86.50;45.10;;;;;;;1.79;100.00;101455.90;106076;1265;100206;-78
2024/03/08 08:42:57;;;;;;;95.40;46.30;;;;;;;1.90;99.99;101454.61;105404;1259;98332;-76
2024/03/08 08:45:42;;;;;;;91.90;47.20;;;;;;;1.99;99.59;101454.48;105349;1265;98065;-76
2024/03/08 08:48:30;;;;;;;90.80;46.60;;;;;;;2.06;99.20;101451.98;105234;1265;97778;-75
2024/03/08 08:51:15;;;;;;;88.50;45.30;;;;;;;2.14;99.20;101452.27;105268;1259;101381;-76
2024/03/08 08:54:01;;;;;;;80.40;43.40;;;;;;;2.22;98.86;101450.12;105235;1260;100329;-75
2024/03/08 08:56:47;;;;;;;86.60;44.00;;;;;;;2.29;98.73;101449.20;105188;1265;99057;-75
2024/03/08 08:59:36;;;;;;;84.00;45.60;;;;;;;2.38;98.51;101446.09;105027;1260;97869;-76
2024/03/08 09:02:21;;;;;;;78.90;42.70;;;;;;;2.48;98.51;101447.84;105057;1265;98050;-77
2024/03/08 09:05:11;;;;;;;78.70;40.80;;;;;;;2.57;98.23;101443.04;105131;1260;101244;-76
2024/03/08 09:07:56;;;;;;;75.80;40.00;;;;;;;2.66;98.23;101439.03;106105;1259;99187;-84
2024/03/08 09:10:43;;;;;;;76.30;38.30;;;;;;;2.75;97.82;101438.67;106197;1260;98813;-83
2024/03/08 09:13:28;;;;;;;71.70;39.80;;;;;;;2.85;97.80;101439.53;106128;1264;97967;-84
2024/03/08 09:16:15;;;;;;;70.00;36.90;;;;;;;2.93;96.95;101439.07;105382;1259;98589;-83
2024/03/08 09:19:01;;;;;;;67.10;35.90;;;;;;;3.01;96.19;101439.35;105802;1265;102671;-77
2024/03/08 09:21:47;;;;;;;66.40;36.80;;;;;;;3.09;96.05;101437.23;105219;1259;100350;-75
2024/03/08 09:24:32;;;;;;;62.30;33.90;;;;;;;3.19;96.00;101437.35;105144;1265;97970;-76
2024/03/08 09:27:18;;;;;;;61.00;34.20;;;;;;;3.29;95.38;101431.98;105140;1265;99250;-75
2024/03/08 09:30:06;;;;;;;56.40;29.30;;;;;;;3.39;94.58;101432.27;105198;1265;98742;-75
2024/03/08 09:32:52;;;;;;;53.70;28.40;;;;;;;3.48;93.34;101432.08;105266;1264;101482;-75
2024/03/08 09:35:37;;;;;;;48.50;26.20;;;;;;;3.57;93.13;101427.14;105055;1259;99105;-75
2024/03/08 09:38:22;;;;;;;50.00;26.00;;;;;;;3.65;92.59;101425.42;105141;1265;97961;-75
2024/03/08 09:41:10;;;;;;;52.50;24.90;;;;;;;3.71;91.49;101428.77;105220;1271;98488;-75
2024/03/08 09:43:59;;;;;;;38.60;21.10;;;;;;;3.78;90.33;101423.09;105304;1259;98498;-75
2024/03/08 09:46:47;;;;;;;43.30;22.80;;;;;;;3.84;89.87;101421.71;105228;1265;102235;-74
2024/03/08 09:49:34;;;;;;;40.40;20.40;;;;;;;3.91;89.54;101422.04;105415;1259;100304;-83
2024/03/08 09:52:19;;;;;;;36.20;21.00;;;;;;;3.98;89.43;101418.99;106150;1268;97961;-82
2024/03/08 09:55:06;;;;;;;32.90;18.50;;;;;;;4.06;89.07;101421.16;105757;1262;98057;-75
2024/03/08 10:01:04;;;;;;;26.00;14.90;;;;;;;4.19;85.72;101419.73;106000;1262;101457;-82
2024/03/08 10:03:54;;;;;;;24.60;13.40;;;;;;;4.24;84.78;101417.69;105992;1262;100067;-85
2024/03/08 10:06:40;;;;;;;33.30;17.40;;;;;;;4.31;85.01;101414.64;105889;1260;98048;-81
2024/03/08 10:09:27;;;;;;;25.70;15.30;;;;;;;4.40;85.41;101407.55;105947;1265;98043;-82
2024/03/08 10:12:13;;;;;;;24.20;13.20;;;;;;;4.50;84.59;101410.91;106003;1259;97938;-84
2024/03/08 10:14:59;;;;;;;30.40;15.90;;;;;;;4.58;83.35;101409.41;105550;1271;101439;-82
2024/03/08 10:17:45;;;;;;;27.90;14.80;;;;;;;4.66;83.87;101413.45;105374;1264;99870;-81
2024/03/08 10:20:34;;;;;;;28.30;16.10;;;;;;;4.75;83.29;101409.39;105970;1264;99113;-81
2024/03/08 10:23:20;;;;;;;30.50;16.60;;;;;;;4.80;82.27;101406.61;106017;1260;98001;-86
2024/03/08 10:26:17;;;;;;;27.60;15.00;;;;;;;4.85;82.03;101406.41;106091;1267;98584;-83
2024/03/08 10:29:03;;;;;;;25.60;15.20;;;;;;;4.94;82.50;101399.73;106022;1267;101298;-83
2024/03/08 10:31:50;;;;;;;29.40;15.80;;;;;;;5.03;82.35;101398.63;105949;1261;99273;-86
2024/03/08 10:34:36;;;;;;;28.10;16.10;;;;;;;5.10;81.32;101395.00;105907;1267;98005;-79
2024/03/08 10:37:23;;;;;;;25.40;14.30;;;;;;;5.16;80.57;101395.33;105390;1264;98409;-86
2024/03/08 10:40:15;;;;;;;30.00;17.20;;;;;;;5.22;80.87;101390.76;105846;1261;98476;-81
2024/03/08 10:43:02;;;;;;;31.80;17.10;;;;;;;5.28;80.46;101395.67;105623;1262;102640;-79
2024/03/08 10:45:48;;;;;;;29.70;16.80;;;;;;;5.32;80.03;101393.17;105884;1265;99257;-83
2024/03/08 10:48:43;;;;;;;29.30;17.40;;;;;;;5.35;79.11;101386.71;105783;1261;98860;-83
2024/03/08 10:51:30;;;;;;;32.30;16.80;;;;;;;5.39;79.48;101383.92;105182;1268;99292;-83
2024/03/08 10:54:16;;;;;;;32.10;17.40;;;;;;;5.45;79.81;101382.48;105906;1264;97971;-85
2024/03/08 10:57:05;;;;;;;32.90;17.20;;;;;;;5.51;78.88;101380.23;106110;1262;102115;-80
2024/03/08 10:59:52;;;;;;;25.80;15.60;;;;;;;5.55;78.44;101382.66;106300;1264;99266;-80
2024/03/08 11:02:38;;;;;;;28.50;16.20;;;;;;;5.59;78.13;101379.10;106350;1260;98627;-80
2024/03/08 11:05:41;;;;;;;29.80;16.30;;;;;;;5.68;78.24;101377.09;106549;1264;97968;-79
2024/03/08 11:08:31;;;;;;;28.60;16.50;;;;;;;5.75;77.31;101372.89;106496;1260;97972;-81
2024/03/08 11:11:27;;;;;;;28.20;17.00;;;;;;;5.82;77.20;101367.34;106068;1264;102468;-79
2024/03/08 11:14:46;;;;;;;30.60;16.80;;;;;;;5.92;77.49;101361.84;106452;1264;99749;-79
2024/03/08 11:17:31;;;;;;;29.50;16.40;;;;;;;6.01;77.10;101360.65;105891;1262;97903;-80
2024/03/08 11:20:20;;;;;;;26.60;15.70;;;;;;;6.05;76.36;101357.54;106010;1264;97957;-79
2024/03/08 11:23:06;;;;;;;28.70;16.30;;;;;;;6.10;76.69;101350.58;105918;1274;96702;-80
2024/03/08 11:25:52;;;;;;;28.70;16.70;;;;;;;6.16;76.22;101348.61;105928;1261;102658;-80
2024/03/08 11:28:38;;;;;;;27.60;15.60;;;;;;;6.21;75.98;101345.84;105768;1264;100526;-79
2024/03/08 11:31:26;;;;;;;22.90;15.10;;;;;;;6.25;75.68;101342.79;106348;1263;99084;-80
2024/03/08 11:34:16;;;;;;;26.50;15.70;;;;;;;6.32;75.37;101340.23;106311;1261;98188;-81
2024/03/08 11:37:09;;;;;;;25.10;14.10;;;;;;;6.38;74.71;101341.57;106287;1264;99823;-80
2024/03/08 11:39:58;;;;;;;26.60;15.00;;;;;;;6.43;74.85;101336.33;106015;1263;103108;-81
2024/03/08 11:42:48;;;;;;;26.50;15.20;;;;;;;6.48;74.21;101334.75;106045;1266;100789;-81
2024/03/08 11:45:38;;;;;;;25.70;14.60;;;;;;;6.54;73.24;101331.91;105995;1265;98015;-85
2024/03/08 11:48:24;;;;;;;28.90;15.00;;;;;;;6.57;72.74;101330.27;106579;1267;97955;-79
2024/03/08 11:51:15;;;;;;;25.80;14.30;;;;;;;6.59;73.10;101324.50;106066;1265;98397;-78
2024/03/08 11:54:00;;;;;;;27.10;15.00;;;;;;;6.64;73.26;101320.83;105532;1266;101356;-78
2024/03/08 11:56:49;;;;;;;29.20;16.20;;;;;;;6.72;72.95;101320.83;105945;1265;99091;-81
2024/03/08 11:59:36;;;;;;;24.90;15.30;;;;;;;6.76;72.02;101319.89;106149;1265;97978;-92
2024/03/08 12:02:22;;;;;;;27.70;14.70;;;;;;;6.80;72.12;101317.39;106061;1263;98552;-79
2024/03/08 12:05:16;;;;;;;26.70;15.50;;;;;;;6.83;71.40;101314.91;105687;1267;97997;-79
2024/03/08 12:08:02;;;;;;;27.30;14.80;;;;;;;6.85;70.87;101313.14;105817;1263;101366;-77
2024/03/08 12:10:48;;;;;;;22.40;14.40;;;;;;;6.90;71.66;101306.26;105814;1264;99798;-79
2024/03/08 12:13:34;;;;;;;23.40;12.60;;;;;;;6.96;71.25;101306.73;106029;1264;97958;-79
2024/03/08 12:16:23;;;;;;;26.10;15.70;;;;;;;7.02;70.86;101304.41;106292;1264;97948;-83
2024/03/08 12:19:10;;;;;;;27.70;14.80;;;;;;;7.08;70.30;101300.45;105802;1265;98482;-85
2024/03/08 12:21:56;;;;;;;29.60;15.60;;;;;;;7.13;69.70;101302.85;105875;1265;101566;-86
2024/03/08 12:25:04;;;;;;;25.30;14.70;;;;;;;7.15;69.44;101294.97;105956;1265;100522;-84
2024/03/08 12:27:52;;;;;;;23.60;14.60;;;;;;;7.19;69.22;101289.81;105919;1262;98043;-83
2024/03/08 12:30:51;;;;;;;28.10;15.10;;;;;;;7.28;69.81;101290.00;106117;1261;98017;-82
2024/03/08 12:33:50;;;;;;;28.20;15.40;;;;;;;7.37;70.08;101284.45;106842;1260;97950;-86
2024/03/08 12:36:45;;;;;;;24.70;15.30;;;;;;;7.46;70.42;101280.06;105982;1268;102867;-83
2024/03/08 12:39:39;;;;;;;23.60;15.10;;;;;;;7.55;70.42;101278.00;106285;1265;100413;-87